This is the latest recevied weather packets stored in our database for station/object SV1JCZ-13. If no packets are shown the sender has not sent any weather packets the latest 10 day(s).
| Time | Temp. | Humidity | Pressure | Rain* | Wind** | Luminosity | Snow |
|---|---|---|---|---|---|---|---|
| 1777732030 | 11.11° C | 57% | 0 hPa | 0 mm | - | - | - |
| 1777731670 | 11.67° C | 55% | 0 hPa | 0 mm | - | - | - |
| 1777731431 | 11.67° C | 52% | 0 hPa | 0 mm | - | - | - |
| 1777731310 | 11.67° C | 54% | 0 hPa | 0 mm | - | - | - |
| 1777730950 | 11.11° C | 58% | 0 hPa | 0 mm | - | - | - |
| 1777730230 | 10.56° C | 59% | 0 hPa | 0 mm | - | - | - |
| 1777729870 | 10.56° C | 60% | 0 hPa | 0 mm | - | - | - |
| 1777729510 | 11.11° C | 58% | 0 hPa | 0 mm | - | - | - |
| 1777729150 | 11.11° C | 56% | 0 hPa | 0 mm | - | - | - |
| 1777728790 | 10.56° C | 62% | 0 hPa | 0 mm | - | - | - |
| 1777728430 | 9.44° C | 64% | 0 hPa | 0 mm | - | - | - |
| 1777728070 | 9.44° C | 64% | 0 hPa | 0 mm | - | - | - |
| 1777727831 | 9.44° C | 63% | 0 hPa | 0 mm | - | - | - |
| 1777727710 | 9.44° C | 67% | 0 hPa | 0 mm | - | - | - |
| 1777727350 | 8.89° C | 67% | 0 hPa | 0 mm | - | - | - |
| 1777726630 | 8.89° C | 66% | 0 hPa | 0 mm | - | - | - |
| 1777726270 | 8.89° C | 68% | 0 hPa | 0 mm | - | - | - |
| 1777725910 | 8.89° C | 68% | 0 hPa | 0 mm | - | - | - |
| 1777725550 | 8.89° C | 69% | 0 hPa | 0 mm | - | - | - |
| 1777725431 | 8.89° C | 69% | 0 hPa | 0 mm | - | - | - |
| 1777724830 | 8.89° C | 70% | 0 hPa | 0 mm | - | - | - |
| 1777724470 | 9.44° C | 69% | 0 hPa | 0 mm | - | - | - |
| 1777724231 | 9.44° C | 69% | 0 hPa | 0 mm | - | - | - |
| 1777724110 | 9.44° C | 68% | 0 hPa | 0 mm | - | - | - |
| 1777723750 | 9.44° C | 70% | 0 hPa | 0 mm | - | - | - |
* Rain latest hour (hover to see other rain measurements)
** Current wind speed in m/s (hover to see current wind gust speed)